Time;durP1;ratioP1;P1;durP2;ratioP2;P2;SDS_P1;SDS_P2;PMS_P1;PMS_P2;Temp;Humidity;BMP_temperature;BMP_pressure;BME280_temperature;BME280_humidity;BME280_pressure;Samples;Min_cycle;Max_cycle;Signal;HPM_P1;HPM_P2
2022/12/11 00:00:42;;;;;;;;;;;15.60;38.00;;;;;;5092341;28;20188;-68
2022/12/11 00:03:08;;;;;;;;;;;16.00;37.40;;;;;;5092248;28;19920;-68
2022/12/11 00:05:33;;;;;;;;;;;16.30;36.80;;;;;;5074171;28;19920;-69
2022/12/11 00:07:59;;;;;;;;;;;16.70;36.20;;;;;;5074276;28;19928;-68
2022/12/11 00:10:25;;;;;;;;;;;17.10;35.50;;;;;;5093620;28;19947;-68
2022/12/11 00:12:50;;;;;;;;;;;17.50;34.80;;;;;;5078445;28;19946;-69
2022/12/11 00:15:16;;;;;;;;;;;18.10;34.20;;;;;;5096140;28;20368;-69
2022/12/11 00:17:41;;;;;;;;;;;18.60;33.30;;;;;;5096227;28;20007;-68
2022/12/11 00:20:08;;;;;;;;;;;19.30;32.50;;;;;;5078070;28;20395;-68
2022/12/11 00:22:33;;;;;;;;;;;20.00;31.60;;;;;;5095164;28;19920;-69
2022/12/11 00:24:59;;;;;;;;;;;20.60;30.80;;;;;;5095979;28;20352;-68
2022/12/11 00:27:24;;;;;;;;;;;21.10;30.00;;;;;;5078122;28;19920;-68
2022/12/11 00:29:50;;;;;;;;;;;21.60;29.70;;;;;;5096396;28;19923;-68
2022/12/11 00:32:15;;;;;;;;;;;21.90;29.30;;;;;;5078154;28;19972;-68
2022/12/11 00:34:41;;;;;;;;;;;22.10;29.10;;;;;;5095189;28;20268;-69
2022/12/11 00:37:06;;;;;;;;;;;22.10;29.00;;;;;;5077842;28;19927;-68
2022/12/11 00:39:32;;;;;;;;;;;22.00;29.00;;;;;;5077946;28;20448;-68
2022/12/11 00:41:58;;;;;;;;;;;21.80;29.10;;;;;;5095767;28;19924;-69
2022/12/11 00:44:23;;;;;;;;;;;21.50;29.30;;;;;;5077385;28;20012;-69
2022/12/11 00:46:49;;;;;;;;;;;21.30;29.60;;;;;;5095629;28;19927;-69
2022/12/11 00:49:14;;;;;;;;;;;21.00;29.90;;;;;;5095333;28;20347;-69
2022/12/11 00:51:40;;;;;;;;;;;20.70;30.10;;;;;;5077335;28;19920;-68
2022/12/11 00:54:05;;;;;;;;;;;20.40;30.50;;;;;;5077300;28;20010;-69
2022/12/11 00:56:31;;;;;;;;;;;20.10;30.80;;;;;;5095870;28;20048;-68
2022/12/11 00:58:56;;;;;;;;;;;19.90;31.20;;;;;;5077341;28;19973;-69
2022/12/11 01:01:22;;;;;;;;;;;19.60;31.50;;;;;;5095262;28;19920;-69
2022/12/11 01:03:48;;;;;;;;;;;19.40;31.90;;;;;;5094382;28;19924;-68
2022/12/11 01:06:15;;;;;;;;;;;19.20;32.20;;;;;;5095439;28;19920;-69
2022/12/11 01:08:41;;;;;;;;;;;18.90;32.40;;;;;;5077057;28;20326;-68
2022/12/11 01:11:09;;;;;;;;;;;18.70;32.80;;;;;;5095294;28;19920;-68
2022/12/11 01:13:34;;;;;;;;;;;18.60;33.00;;;;;;5077290;28;20257;-68
2022/12/11 01:16:04;;;;;;;;;;;18.40;33.30;;;;;;5076769;28;20045;-69
2022/12/11 01:18:30;;;;;;;;;;;18.30;33.50;;;;;;5095484;28;19972;-68
2022/12/11 01:20:55;;;;;;;;;;;18.20;33.60;;;;;;5094667;28;20376;-68
2022/12/11 01:23:21;;;;;;;;;;;18.20;33.70;;;;;;5094279;28;19927;-68
2022/12/11 01:25:46;;;;;;;;;;;18.10;33.60;;;;;;5094784;28;19927;-69
2022/12/11 01:28:12;;;;;;;;;;;18.10;33.70;;;;;;5076632;28;19924;-68
2022/12/11 01:30:39;;;;;;;;;;;18.10;33.80;;;;;;5076586;28;19927;-68
2022/12/11 01:33:05;;;;;;;;;;;18.00;33.80;;;;;;5076640;28;19959;-69
2022/12/11 01:35:30;;;;;;;;;;;18.00;33.80;;;;;;5076645;28;19920;-69
2022/12/11 01:37:56;;;;;;;;;;;18.00;33.80;;;;;;5094765;28;19920;-69
2022/12/11 01:40:21;;;;;;;;;;;18.10;33.80;;;;;;5094047;28;19926;-69
2022/12/11 01:42:47;;;;;;;;;;;18.10;33.80;;;;;;5094534;28;20394;-69
2022/12/11 01:47:59;;;;;;;;;;;18.10;33.80;;;;;;5089919;28;19919;-69
2022/12/11 01:50:25;;;;;;;;;;;18.10;33.70;;;;;;5088593;28;20426;-69
2022/12/11 01:52:51;;;;;;;;;;;18.10;33.80;;;;;;5088960;28;19925;-69
2022/12/11 01:55:17;;;;;;;;;;;18.10;33.80;;;;;;5088871;28;19920;-68
2022/12/11 01:57:44;;;;;;;;;;;18.00;33.80;;;;;;5088725;28;20097;-69
2022/12/11 02:00:10;;;;;;;;;;;18.00;33.90;;;;;;5088319;28;19921;-68
2022/12/11 02:02:35;;;;;;;;;;;17.90;33.90;;;;;;5088356;28;19920;-68
2022/12/11 02:05:01;;;;;;;;;;;17.90;34.00;;;;;;5105319;28;19924;-69
2022/12/11 02:07:28;;;;;;;;;;;17.80;34.00;;;;;;5088232;28;19924;-68
2022/12/11 02:09:55;;;;;;;;;;;17.80;34.10;;;;;;5088290;28;19920;-69
2022/12/11 02:28:49;;;;;;;;;;;17.30;34.70;;;;;;5089198;28;19913;-69
2022/12/11 02:31:20;;;;;;;;;;;17.20;34.90;;;;;;5089769;28;19947;-68
2022/12/11 02:34:03;;;;;;;;;;;17.10;35.10;;;;;;5088693;28;20358;-69
2022/12/11 02:36:32;;;;;;;;;;;17.10;35.20;;;;;;5089977;28;19921;-69
2022/12/11 02:38:59;;;;;;;;;;;17.00;35.30;;;;;;5088712;28;20407;-69
2022/12/11 02:41:26;;;;;;;;;;;16.90;35.40;;;;;;5088422;28;19924;-69
2022/12/11 02:43:53;;;;;;;;;;;16.80;35.50;;;;;;5089596;28;19966;-69
2022/12/11 02:46:20;;;;;;;;;;;16.80;35.70;;;;;;5088462;28;20265;-68
2022/12/11 02:48:47;;;;;;;;;;;16.70;35.80;;;;;;5088487;28;19944;-69
2022/12/11 02:51:13;;;;;;;;;;;16.70;36.00;;;;;;5089551;28;19921;-68
2022/12/11 02:53:40;;;;;;;;;;;16.60;36.10;;;;;;5089358;28;19999;-69
2022/12/11 02:56:09;;;;;;;;;;;16.60;36.20;;;;;;5088113;28;19966;-69
2022/12/11 02:58:36;;;;;;;;;;;16.40;36.20;;;;;;5089303;28;19920;-69
2022/12/11 03:01:02;;;;;;;;;;;16.40;36.40;;;;;;5088263;28;19920;-68
2022/12/11 03:03:28;;;;;;;;;;;16.40;36.50;;;;;;5088332;28;19927;-69
2022/12/11 03:05:54;;;;;;;;;;;16.30;36.60;;;;;;5088580;28;19977;-68
2022/12/11 03:08:19;;;;;;;;;;;16.20;36.70;;;;;;5089142;28;20393;-68
2022/12/11 03:10:45;;;;;;;;;;;16.20;36.80;;;;;;5088441;28;20364;-69
2022/12/11 03:13:12;;;;;;;;;;;16.10;36.90;;;;;;5088070;28;19920;-69
2022/12/11 03:15:58;;;;;;;;;;;16.00;37.00;;;;;;5087615;28;19927;-69
2022/12/11 03:18:32;;;;;;;;;;;15.90;37.20;;;;;;5087837;28;20023;-69
2022/12/11 03:26:28;;;;;;;;;;;15.80;37.70;;;;;;5127890;27;1856943;-69
2022/12/11 03:28:58;;;;;;;;;;;15.60;37.80;;;;;;5174356;27;19939;-69
2022/12/11 03:31:44;;;;;;;;;;;15.60;37.90;;;;;;5173368;27;20310;-69
2022/12/11 03:34:15;;;;;;;;;;;15.50;38.00;;;;;;5153389;27;19972;-69
2022/12/11 03:36:41;;;;;;;;;;;15.40;38.00;;;;;;5153539;27;19930;-68
2022/12/11 03:39:09;;;;;;;;;;;15.40;38.20;;;;;;5153362;27;19919;-68
2022/12/11 03:41:36;;;;;;;;;;;15.40;38.20;;;;;;5153597;27;19919;-69
2022/12/11 03:44:02;;;;;;;;;;;15.30;38.30;;;;;;5153197;27;19919;-69
2022/12/11 03:46:30;;;;;;;;;;;15.30;38.40;;;;;;5171838;27;19923;-69
2022/12/11 03:48:58;;;;;;;;;;;15.30;38.40;;;;;;5153634;27;19948;-69
2022/12/11 03:51:24;;;;;;;;;;;15.30;38.50;;;;;;5152953;27;20382;-69
2022/12/11 03:53:50;;;;;;;;;;;15.30;38.60;;;;;;5171852;27;19919;-69
2022/12/11 03:56:16;;;;;;;;;;;15.20;38.60;;;;;;5153220;27;19923;-70
2022/12/11 03:58:41;;;;;;;;;;;15.20;38.70;;;;;;5171883;27;19926;-69
2022/12/11 04:01:08;;;;;;;;;;;15.20;38.70;;;;;;5171534;27;20425;-69
2022/12/11 04:03:33;;;;;;;;;;;15.10;38.70;;;;;;5171547;27;19973;-69
2022/12/11 04:05:59;;;;;;;;;;;15.10;38.70;;;;;;5152696;27;19962;-69
2022/12/11 04:08:24;;;;;;;;;;;15.10;38.80;;;;;;5152811;27;19923;-69
2022/12/11 04:13:36;;;;;;;;;;;15.10;38.90;;;;;;5152768;27;20009;-68
2022/12/11 04:16:01;;;;;;;;;;;15.70;38.50;;;;;;5152908;27;19919;-68
2022/12/11 04:24:29;;;;;;;;;;;17.90;35.10;;;;;;5152211;27;19919;-69
2022/12/11 04:26:45;;;;;;;;;;;19.00;33.60;;;;;;5170703;27;19978;-68
2022/12/11 04:29:11;;;;;;;;;;;19.90;32.20;;;;;;5152610;27;20002;-69
2022/12/11 04:31:36;;;;;;;;;;;20.70;31.10;;;;;;5152565;27;20017;-68
2022/12/11 04:34:02;;;;;;;;;;;21.30;30.30;;;;;;5151874;27;20386;-70
2022/12/11 04:36:27;;;;;;;;;;;21.80;29.70;;;;;;5145855;27;19926;-69
2022/12/11 04:38:53;;;;;;;;;;;22.10;29.30;;;;;;5138657;27;19919;-68
2022/12/11 04:41:18;;;;;;;;;;;22.40;29.10;;;;;;5138388;27;19963;-69
2022/12/11 04:43:44;;;;;;;;;;;22.40;29.50;;;;;;5138250;27;20010;-69
2022/12/11 04:46:11;;;;;;;;;;;22.30;28.90;;;;;;5138190;27;19977;-70
2022/12/11 04:48:37;;;;;;;;;;;22.20;29.10;;;;;;5156670;27;19923;-69
2022/12/11 04:51:03;;;;;;;;;;;21.90;29.30;;;;;;5156940;27;19919;-69
2022/12/11 04:53:29;;;;;;;;;;;21.60;29.60;;;;;;5156591;27;20289;-69
2022/12/11 04:55:54;;;;;;;;;;;21.30;29.80;;;;;;5156758;27;19926;-69
2022/12/11 04:58:21;;;;;;;;;;;21.00;30.00;;;;;;5138250;27;19923;-69
2022/12/11 05:00:46;;;;;;;;;;;20.70;30.40;;;;;;5156470;27;19926;-69
2022/12/11 05:03:12;;;;;;;;;;;20.40;30.90;;;;;;5138215;27;19920;-69
2022/12/11 05:05:37;;;;;;;;;;;20.10;31.30;;;;;;5156437;27;19923;-69
2022/12/11 05:08:03;;;;;;;;;;;19.80;31.60;;;;;;5156370;27;19927;-68
2022/12/11 05:10:29;;;;;;;;;;;19.60;32.00;;;;;;5156432;27;19919;-69
2022/12/11 05:12:54;;;;;;;;;;;19.30;32.30;;;;;;5137741;27;19919;-68
2022/12/11 05:15:20;;;;;;;;;;;19.10;32.60;;;;;;5137998;27;19923;-69
2022/12/11 05:17:45;;;;;;;;;;;18.90;32.90;;;;;;5137942;27;20417;-69
2022/12/11 05:20:11;;;;;;;;;;;18.70;33.10;;;;;;5137915;27;19919;-69
2022/12/11 05:22:37;;;;;;;;;;;18.50;33.40;;;;;;5156326;27;19919;-69
2022/12/11 05:25:03;;;;;;;;;;;18.30;33.70;;;;;;5137255;27;20374;-69
2022/12/11 05:27:28;;;;;;;;;;;18.30;33.90;;;;;;5137479;27;19925;-69
2022/12/11 05:29:54;;;;;;;;;;;18.20;34.00;;;;;;5155929;27;20005;-69
2022/12/11 05:32:19;;;;;;;;;;;18.20;34.10;;;;;;5137198;27;20022;-69
2022/12/11 05:34:45;;;;;;;;;;;18.10;34.10;;;;;;5155694;27;20323;-69
2022/12/11 05:37:10;;;;;;;;;;;18.10;34.10;;;;;;5137571;27;19930;-69
2022/12/11 05:39:36;;;;;;;;;;;18.10;34.10;;;;;;5136517;27;20002;-69
2022/12/11 05:42:02;;;;;;;;;;;18.00;34.10;;;;;;5155757;27;19942;-68
2022/12/11 05:44:27;;;;;;;;;;;18.00;34.20;;;;;;5137008;27;19927;-69
2022/12/11 05:46:53;;;;;;;;;;;18.00;34.20;;;;;;5155678;27;20025;-69
2022/12/11 05:49:18;;;;;;;;;;;18.00;34.20;;;;;;5154727;27;20446;-69
2022/12/11 05:51:44;;;;;;;;;;;18.00;34.20;;;;;;5155783;27;20298;-69
2022/12/11 05:54:10;;;;;;;;;;;18.00;34.10;;;;;;5155638;27;19927;-69
2022/12/11 05:56:36;;;;;;;;;;;18.10;34.10;;;;;;5155325;27;19919;-69
2022/12/11 05:59:02;;;;;;;;;;;18.10;34.10;;;;;;5137163;27;20263;-69
2022/12/11 06:01:29;;;;;;;;;;;18.10;34.10;;;;;;5136731;27;19923;-69
2022/12/11 06:03:55;;;;;;;;;;;18.10;34.10;;;;;;5136011;27;19919;-69
2022/12/11 06:06:21;;;;;;;;;;;18.10;34.10;;;;;;5136606;27;19934;-69
2022/12/11 06:08:50;;;;;;;;;;;18.00;34.10;;;;;;5155416;27;19926;-69
2022/12/11 06:11:15;;;;;;;;;;;17.90;34.20;;;;;;5136593;27;19918;-69
2022/12/11 06:13:41;;;;;;;;;;;17.90;34.20;;;;;;5136886;27;19967;-68
2022/12/11 06:16:07;;;;;;;;;;;17.90;34.30;;;;;;5155046;27;19926;-69
2022/12/11 06:18:35;;;;;;;;;;;17.80;34.40;;;;;;5136689;27;20366;-69
2022/12/11 06:21:00;;;;;;;;;;;17.80;34.40;;;;;;5155078;27;20417;-69
2022/12/11 06:23:26;;;;;;;;;;;17.80;34.50;;;;;;5136436;27;19919;-69
2022/12/11 06:25:52;;;;;;;;;;;17.70;34.60;;;;;;5135918;27;19923;-69
2022/12/11 06:28:17;;;;;;;;;;;17.60;34.60;;;;;;5154853;27;20016;-69
2022/12/11 06:30:43;;;;;;;;;;;17.60;34.80;;;;;;5154786;27;20314;-69
2022/12/11 06:33:09;;;;;;;;;;;17.50;34.90;;;;;;5136706;27;19926;-69
2022/12/11 06:35:35;;;;;;;;;;;17.40;35.00;;;;;;5154719;27;20278;-69
2022/12/11 06:38:00;;;;;;;;;;;17.40;35.10;;;;;;5154809;27;19944;-69
2022/12/11 06:40:26;;;;;;;;;;;17.30;35.20;;;;;;5154621;27;19919;-69
2022/12/11 06:42:53;;;;;;;;;;;17.20;35.40;;;;;;5154509;27;19923;-69
2022/12/11 06:45:18;;;;;;;;;;;17.10;35.50;;;;;;5135954;27;20401;-69
2022/12/11 06:47:44;;;;;;;;;;;17.00;35.60;;;;;;5154359;27;19919;-69
2022/12/11 06:50:09;;;;;;;;;;;17.00;35.80;;;;;;5135919;27;19919;-70
2022/12/11 06:52:35;;;;;;;;;;;16.90;35.90;;;;;;5154340;27;19919;-69
2022/12/11 06:55:00;;;;;;;;;;;16.80;36.00;;;;;;5119039;27;19923;-69
2022/12/11 06:57:26;;;;;;;;;;;16.70;36.20;;;;;;5135710;27;20005;-69
2022/12/11 06:59:51;;;;;;;;;;;16.70;36.30;;;;;;5135838;27;19941;-69
2022/12/11 07:02:18;;;;;;;;;;;16.60;36.40;;;;;;5135718;27;19919;-69
2022/12/11 07:04:44;;;;;;;;;;;16.50;36.50;;;;;;5135067;27;20339;-69
2022/12/11 07:07:09;;;;;;;;;;;16.50;36.60;;;;;;5154212;27;19923;-69
2022/12/11 07:09:36;;;;;;;;;;;16.40;36.70;;;;;;5154519;27;19946;-69
2022/12/11 07:12:03;;;;;;;;;;;16.40;36.90;;;;;;5135888;27;19919;-69
2022/12/11 07:14:29;;;;;;;;;;;16.30;36.90;;;;;;5135670;27;19923;-69
2022/12/11 07:16:55;;;;;;;;;;;16.20;37.00;;;;;;5135896;27;19919;-69
2022/12/11 07:19:20;;;;;;;;;;;16.20;37.10;;;;;;5135490;27;20309;-68
2022/12/11 07:21:46;;;;;;;;;;;16.10;37.20;;;;;;5135498;27;19927;-69
2022/12/11 07:24:11;;;;;;;;;;;16.00;37.30;;;;;;5135301;27;19927;-69
2022/12/11 07:26:37;;;;;;;;;;;16.00;37.40;;;;;;5135249;27;19923;-69
2022/12/11 07:29:02;;;;;;;;;;;16.00;37.50;;;;;;5153827;27;19919;-69
2022/12/11 07:31:28;;;;;;;;;;;15.90;37.60;;;;;;5135798;27;19919;-69
2022/12/11 07:36:33;;;;;;;;;;;15.80;37.90;;;;;;5089957;28;19912;-69
2022/12/11 07:38:59;;;;;;;;;;;15.60;38.00;;;;;;5088514;28;19920;-69
2022/12/11 07:41:27;;;;;;;;;;;15.60;38.10;;;;;;5088866;28;19978;-69
2022/12/11 07:43:53;;;;;;;;;;;15.60;38.30;;;;;;5088493;28;20005;-69
2022/12/11 07:46:21;;;;;;;;;;;15.50;38.40;;;;;;5105834;28;19920;-69
2022/12/11 07:48:46;;;;;;;;;;;15.50;38.50;;;;;;5088566;28;19925;-69
2022/12/11 07:51:14;;;;;;;;;;;15.40;38.50;;;;;;5105364;28;20430;-69
2022/12/11 07:53:40;;;;;;;;;;;15.40;38.60;;;;;;5088580;28;19936;-70
2022/12/11 07:56:06;;;;;;;;;;;15.30;38.70;;;;;;5088167;28;19924;-69
2022/12/11 07:58:32;;;;;;;;;;;15.30;38.70;;;;;;5089433;28;19927;-68
2022/12/11 08:00:58;;;;;;;;;;;15.30;38.80;;;;;;5088486;28;19920;-69
2022/12/11 08:03:24;;;;;;;;;;;15.30;38.80;;;;;;5088710;28;20513;-69
2022/12/11 08:05:50;;;;;;;;;;;15.30;38.90;;;;;;5089586;28;19926;-68
2022/12/11 08:08:16;;;;;;;;;;;15.30;38.90;;;;;;5089492;28;20288;-68
2022/12/11 08:10:42;;;;;;;;;;;15.20;38.90;;;;;;5087978;28;19921;-68
2022/12/11 08:13:07;;;;;;;;;;;15.20;38.90;;;;;;5087980;28;20011;-68
2022/12/11 08:15:34;;;;;;;;;;;15.20;39.00;;;;;;5087872;28;20007;-68
2022/12/11 08:17:59;;;;;;;;;;;15.60;38.90;;;;;;5087869;28;19920;-68
2022/12/11 08:20:25;;;;;;;;;;;16.20;38.00;;;;;;5089527;28;19925;-68
2022/12/11 08:22:50;;;;;;;;;;;16.80;37.00;;;;;;5088136;28;20069;-68
2022/12/11 08:25:16;;;;;;;;;;;17.60;36.00;;;;;;5087917;28;19943;-68
2022/12/11 08:27:41;;;;;;;;;;;18.50;34.60;;;;;;5088994;28;19927;-69
2022/12/11 08:30:07;;;;;;;;;;;19.40;33.20;;;;;;5087987;28;19929;-68
2022/12/11 08:32:33;;;;;;;;;;;20.20;32.10;;;;;;5088893;28;20314;-70
2022/12/11 08:34:59;;;;;;;;;;;20.90;31.10;;;;;;5095834;28;20337;-68
2022/12/11 08:37:24;;;;;;;;;;;21.50;30.20;;;;;;5108984;28;20001;-68
2022/12/11 08:39:50;;;;;;;;;;;22.00;29.80;;;;;;5090694;28;19920;-68
2022/12/11 08:42:15;;;;;;;;;;;22.20;29.40;;;;;;5108973;28;19998;-68
2022/12/11 08:44:41;;;;;;;;;;;22.30;29.30;;;;;;5090766;28;19920;-68
2022/12/11 08:47:08;;;;;;;;;;;22.20;29.20;;;;;;5099034;28;19924;-69
2022/12/11 08:49:34;;;;;;;;;;;22.10;29.30;;;;;;5095089;28;19972;-70
2022/12/11 08:52:01;;;;;;;;;;;21.90;29.50;;;;;;5095360;28;20014;-69
2022/12/11 08:54:26;;;;;;;;;;;21.70;29.70;;;;;;5076955;28;19924;-70
2022/12/11 08:56:52;;;;;;;;;;;21.40;29.90;;;;;;5077156;28;19926;-69
2022/12/11 08:59:17;;;;;;;;;;;21.10;30.20;;;;;;5093839;28;20295;-68
2022/12/11 09:01:43;;;;;;;;;;;20.80;30.60;;;;;;5076868;28;19931;-69
2022/12/11 09:04:08;;;;;;;;;;;20.50;31.00;;;;;;5095047;28;19920;-69
2022/12/11 09:06:34;;;;;;;;;;;20.20;31.40;;;;;;5076819;28;19932;-69
2022/12/11 09:09:00;;;;;;;;;;;19.90;31.70;;;;;;5077046;28;19928;-68
2022/12/11 09:11:27;;;;;;;;;;;19.60;32.00;;;;;;5094849;28;20038;-69
2022/12/11 09:13:53;;;;;;;;;;;19.40;32.40;;;;;;5094801;28;19920;-69
2022/12/11 09:16:20;;;;;;;;;;;19.20;32.80;;;;;;5093416;28;19928;-69
2022/12/11 09:18:46;;;;;;;;;;;19.00;33.00;;;;;;5093800;28;19958;-69
2022/12/11 09:21:13;;;;;;;;;;;18.80;33.30;;;;;;5076416;28;19927;-69
2022/12/11 09:23:39;;;;;;;;;;;18.60;33.50;;;;;;5093670;28;19919;-69
2022/12/11 09:26:05;;;;;;;;;;;18.50;33.90;;;;;;5076829;28;20359;-70
2022/12/11 09:28:31;;;;;;;;;;;18.30;34.10;;;;;;5094534;28;19920;-69
2022/12/11 09:30:57;;;;;;;;;;;18.10;34.30;;;;;;5078726;28;20380;-69
2022/12/11 09:33:22;;;;;;;;;;;18.10;34.40;;;;;;5073921;28;19974;-68
2022/12/11 09:35:55;;;;;;;;;;;18.20;34.50;;;;;;5073951;28;20363;-68
2022/12/11 09:38:21;;;;;;;;;;;18.00;34.40;;;;;;5074233;28;19921;-70
2022/12/11 09:40:46;;;;;;;;;;;18.10;34.50;;;;;;5074061;28;19920;-69
2022/12/11 09:45:53;;;;;;;;;;;18.00;34.40;;;;;;5109024;27;1866219;-69
2022/12/11 09:48:21;;;;;;;;;;;18.00;34.50;;;;;;5153435;27;19918;-69
2022/12/11 09:50:48;;;;;;;;;;;18.00;34.50;;;;;;5153776;27;19970;-69
2022/12/11 09:53:17;;;;;;;;;;;18.00;34.50;;;;;;5153387;27;19940;-69
2022/12/11 09:56:03;;;;;;;;;;;18.10;34.40;;;;;;5172092;27;19954;-68
2022/12/11 10:06:40;;;;;;;;;;;18.10;34.40;;;;;;5127829;27;1858299;-68
2022/12/11 10:12:08;;;;;;;;;;;18.10;34.50;;;;;;5110249;27;19912;-68
2022/12/11 10:14:54;;;;;;;;;;;18.00;34.40;;;;;;5110019;28;19982;-68
2022/12/11 10:17:29;;;;;;;;;;;18.00;34.50;;;;;;5108681;28;19973;-68
2022/12/11 10:19:56;;;;;;;;;;;17.90;34.60;;;;;;5109990;28;20326;-68
2022/12/11 10:22:23;;;;;;;;;;;17.90;34.70;;;;;;5109129;28;19998;-68
2022/12/11 10:24:54;;;;;;;;;;;17.80;34.70;;;;;;5109174;28;19989;-68
2022/12/11 10:27:21;;;;;;;;;;;17.80;34.90;;;;;;5108765;28;19920;-69
2022/12/11 10:29:51;;;;;;;;;;;17.70;34.90;;;;;;5108550;28;19923;-69
2022/12/11 10:32:22;;;;;;;;;;;17.60;34.90;;;;;;5108942;28;19919;-69
2022/12/11 10:34:49;;;;;;;;;;;17.60;35.10;;;;;;5109695;28;19920;-68
2022/12/11 10:37:15;;;;;;;;;;;17.50;35.20;;;;;;5110013;28;20268;-68
2022/12/11 10:39:41;;;;;;;;;;;17.40;35.30;;;;;;5108392;28;19932;-68
2022/12/11 10:42:22;;;;;;;;;;;17.40;35.40;;;;;;5108734;28;19920;-68
2022/12/11 10:44:56;;;;;;;;;;;17.30;35.50;;;;;;5108552;28;20295;-68
2022/12/11 10:47:21;;;;;;;;;;;17.20;35.60;;;;;;5108536;28;20411;-69
2022/12/11 10:49:57;;;;;;;;;;;17.10;35.70;;;;;;5109335;28;19924;-68
2022/12/11 10:52:27;;;;;;;;;;;17.10;35.90;;;;;;5109580;28;20264;-68
2022/12/11 10:54:55;;;;;;;;;;;17.00;36.00;;;;;;5109410;28;19920;-67
2022/12/11 10:57:26;;;;;;;;;;;17.00;36.20;;;;;;5108355;28;19963;-68
2022/12/11 10:59:52;;;;;;;;;;;16.90;36.30;;;;;;5108269;28;19920;-68
2022/12/11 11:05:00;;;;;;;;;;;16.70;36.60;;;;;;5089876;28;20380;-67
2022/12/11 11:07:28;;;;;;;;;;;16.60;36.70;;;;;;5088840;28;19921;-68
2022/12/11 11:10:13;;;;;;;;;;;16.50;36.90;;;;;;5088559;28;19928;-68
2022/12/11 11:12:40;;;;;;;;;;;16.50;36.90;;;;;;5089644;28;20392;-68
2022/12/11 11:15:10;;;;;;;;;;;16.40;37.00;;;;;;5088431;28;20384;-68
2022/12/11 11:17:45;;;;;;;;;;;16.40;37.20;;;;;;5088739;28;20007;-68
2022/12/11 11:20:12;;;;;;;;;;;16.30;37.20;;;;;;5088251;28;19931;-68
2022/12/11 11:22:41;;;;;;;;;;;16.40;37.40;;;;;;5088266;28;19920;-67
2022/12/11 11:25:15;;;;;;;;;;;16.30;37.40;;;;;;5088510;28;19967;-68
2022/12/11 11:27:44;;;;;;;;;;;16.20;37.40;;;;;;5089715;28;19920;-69
2022/12/11 11:30:17;;;;;;;;;;;16.20;37.50;;;;;;5089648;28;19929;-67
2022/12/11 11:32:43;;;;;;;;;;;16.10;37.70;;;;;;5089510;28;19927;-67
2022/12/11 11:38:10;;;;;;;;;;;15.90;37.90;;;;;;5089872;28;19912;-68
2022/12/11 11:40:38;;;;;;;;;;;15.90;37.90;;;;;;5105335;28;19959;-68
2022/12/11 11:43:09;;;;;;;;;;;15.90;38.00;;;;;;5088885;28;20276;-68
2022/12/11 11:48:36;;;;;;;;;;;15.70;38.20;;;;;;5110231;27;19919;-68
2022/12/11 11:51:06;;;;;;;;;;;15.70;38.30;;;;;;5109009;28;20038;-68
2022/12/11 11:53:36;;;;;;;;;;;15.60;38.50;;;;;;5108927;28;19973;-68
2022/12/11 11:58:43;;;;;;;;;;;15.50;38.80;;;;;;5110154;27;19912;-67
2022/12/11 12:01:13;;;;;;;;;;;15.40;38.90;;;;;;5109528;28;19920;-66
2022/12/11 12:03:38;;;;;;;;;;;15.40;38.90;;;;;;5108994;28;19955;-67
2022/12/11 12:06:09;;;;;;;;;;;15.40;39.00;;;;;;5110209;28;19962;-67
2022/12/11 12:08:54;;;;;;;;;;;15.30;39.10;;;;;;5108839;28;19942;-67
2022/12/11 12:11:40;;;;;;;;;;;15.30;39.20;;;;;;5108490;28;20406;-67
2022/12/11 12:16:54;;;;;;;;;;;15.30;39.30;;;;;;5089800;28;19912;-68
2022/12/11 12:19:26;;;;;;;;;;;15.30;39.30;;;;;;5088975;28;19920;-68
2022/12/11 12:21:53;;;;;;;;;;;15.20;39.30;;;;;;5088860;28;19947;-68
2022/12/11 12:24:39;;;;;;;;;;;15.20;39.30;;;;;;5088800;28;19931;-68
2022/12/11 12:27:21;;;;;;;;;;;15.20;39.40;;;;;;5088350;28;19920;-68
2022/12/11 12:29:55;;;;;;;;;;;15.20;39.40;;;;;;5088702;28;19920;-68
2022/12/11 12:32:40;;;;;;;;;;;15.20;39.40;;;;;;5088313;28;19920;-68
2022/12/11 12:37:55;;;;;;;;;;;15.20;39.40;;;;;;5089786;28;19913;-68
2022/12/11 12:45:51;;;;;;;;;;;15.20;39.50;;;;;;5109610;27;19912;-68
2022/12/11 12:48:17;;;;;;;;;;;15.30;39.50;;;;;;5108749;28;19920;-68
2022/12/11 12:50:45;;;;;;;;;;;15.90;38.90;;;;;;5109281;28;19926;-68
2022/12/11 12:53:14;;;;;;;;;;;16.50;37.90;;;;;;5108711;28;19934;-68
2022/12/11 12:55:40;;;;;;;;;;;17.20;36.80;;;;;;5109192;28;19959;-68
2022/12/11 12:58:06;;;;;;;;;;;18.10;35.40;;;;;;5108700;28;19963;-68
2022/12/11 13:00:37;;;;;;;;;;;19.10;34.20;;;;;;5109056;28;20338;-68
2022/12/11 13:03:19;;;;;;;;;;;20.10;32.80;;;;;;5109118;28;19920;-68
2022/12/11 13:06:05;;;;;;;;;;;20.80;31.50;;;;;;5109871;28;19928;-68
2022/12/11 13:11:20;;;;;;;;;;;22.10;29.90;;;;;;5110261;27;19912;-68
2022/12/11 13:13:49;;;;;;;;;;;22.40;29.40;;;;;;5108936;28;19920;-69
2022/12/11 13:18:53;;;;;;;;;;;22.40;29.30;;;;;;5127850;27;1858805;-68
2022/12/11 13:26:52;;;;;;;;;;;21.60;29.80;;;;;;5110314;27;20287;-68
2022/12/11 13:29:34;;;;;;;;;;;21.30;30.10;;;;;;5108203;28;19920;-68
2022/12/11 13:32:05;;;;;;;;;;;21.10;30.50;;;;;;5108787;28;19924;-68
2022/12/11 13:34:32;;;;;;;;;;;20.70;30.90;;;;;;5108813;28;19920;-70
2022/12/11 13:36:58;;;;;;;;;;;20.50;31.40;;;;;;5109107;28;19927;-69
2022/12/11 13:39:24;;;;;;;;;;;20.10;31.60;;;;;;5108989;28;19927;-69
2022/12/11 13:41:52;;;;;;;;;;;19.90;32.10;;;;;;5107640;28;19920;-69
2022/12/11 13:44:22;;;;;;;;;;;19.60;32.40;;;;;;5107769;28;19919;-69
2022/12/11 13:46:48;;;;;;;;;;;19.40;32.80;;;;;;5108620;28;19931;-69
2022/12/11 13:49:23;;;;;;;;;;;19.10;33.00;;;;;;5108894;28;19928;-69
2022/12/11 13:51:50;;;;;;;;;;;18.90;33.40;;;;;;5109748;28;20379;-68
2022/12/11 13:54:17;;;;;;;;;;;18.70;33.60;;;;;;5109757;28;20279;-67
2022/12/11 13:57:02;;;;;;;;;;;18.50;33.90;;;;;;5108273;28;20011;-69
2022/12/11 13:59:29;;;;;;;;;;;18.30;34.10;;;;;;5142861;27;19927;-69
2022/12/11 14:01:57;;;;;;;;;;;18.20;34.50;;;;;;5109663;28;19920;-68
2022/12/11 14:04:23;;;;;;;;;;;18.10;34.60;;;;;;5109545;28;20294;-68
2022/12/11 14:06:49;;;;;;;;;;;18.00;34.70;;;;;;5108433;28;19927;-69
2022/12/11 14:09:17;;;;;;;;;;;18.00;34.70;;;;;;5108548;28;19920;-68
2022/12/11 14:11:44;;;;;;;;;;;18.00;34.70;;;;;;5108400;28;19920;-68
2022/12/11 14:14:20;;;;;;;;;;;18.00;34.80;;;;;;5109513;28;19926;-68
2022/12/11 14:16:48;;;;;;;;;;;18.30;35.00;;;;;;5108203;28;19920;-69
2022/12/11 14:19:15;;;;;;;;;;;17.90;34.80;;;;;;5091311;28;19969;-69
2022/12/11 14:21:41;;;;;;;;;;;17.90;34.90;;;;;;5109625;28;19966;-68
2022/12/11 14:24:10;;;;;;;;;;;17.90;34.80;;;;;;5107776;28;19919;-69
2022/12/11 14:26:37;;;;;;;;;;;18.00;34.80;;;;;;5127469;28;19924;-69
2022/12/11 14:29:03;;;;;;;;;;;18.00;34.80;;;;;;5129464;28;19927;-68
2022/12/11 14:31:33;;;;;;;;;;;18.00;34.70;;;;;;5145632;27;19920;-69
2022/12/11 14:34:03;;;;;;;;;;;18.00;34.70;;;;;;5111020;28;20398;-69
2022/12/11 14:36:30;;;;;;;;;;;18.00;34.70;;;;;;5141530;27;20402;-69
2022/12/11 14:38:59;;;;;;;;;;;18.00;34.70;;;;;;5097297;28;19920;-70
2022/12/11 14:41:29;;;;;;;;;;;18.00;34.70;;;;;;5097277;28;20011;-69
2022/12/11 14:43:57;;;;;;;;;;;17.90;34.70;;;;;;5115683;28;20382;-68
2022/12/11 14:46:31;;;;;;;;;;;17.90;34.80;;;;;;5097281;28;20001;-69
2022/12/11 14:48:59;;;;;;;;;;;17.90;34.90;;;;;;5115893;28;19935;-69
2022/12/11 14:51:27;;;;;;;;;;;17.80;34.90;;;;;;5115443;28;20401;-69
2022/12/11 14:53:53;;;;;;;;;;;17.80;34.90;;;;;;5115294;28;19969;-69
2022/12/11 14:56:20;;;;;;;;;;;17.70;35.00;;;;;;5114648;28;20371;-69
2022/12/11 14:58:50;;;;;;;;;;;17.70;35.10;;;;;;5115070;28;19926;-69
2022/12/11 15:01:20;;;;;;;;;;;17.60;35.10;;;;;;5096797;28;20011;-68
2022/12/11 15:03:46;;;;;;;;;;;17.60;35.20;;;;;;5097145;28;20222;-69
2022/12/11 15:06:28;;;;;;;;;;;17.60;35.30;;;;;;5115172;28;20387;-69
2022/12/11 15:08:54;;;;;;;;;;;17.50;35.40;;;;;;5096779;28;19927;-69
2022/12/11 15:11:20;;;;;;;;;;;17.40;35.50;;;;;;5096830;28;19926;-69
2022/12/11 15:13:51;;;;;;;;;;;17.30;35.60;;;;;;5096530;28;20007;-69
2022/12/11 15:16:17;;;;;;;;;;;17.20;35.70;;;;;;5097019;28;20465;-69
2022/12/11 15:18:46;;;;;;;;;;;17.10;35.80;;;;;;5114836;28;19924;-70
2022/12/11 15:21:12;;;;;;;;;;;17.10;36.00;;;;;;5096866;28;19927;-69
2022/12/11 15:26:33;;;;;;;;;;;16.90;36.20;;;;;;5089899;28;19912;-70
2022/12/11 15:29:00;;;;;;;;;;;16.80;36.40;;;;;;5088513;28;19924;-70
2022/12/11 15:31:27;;;;;;;;;;;16.80;36.50;;;;;;5105875;28;19920;-69
2022/12/11 15:33:52;;;;;;;;;;;16.70;36.70;;;;;;5089775;28;19920;-68
2022/12/11 15:36:22;;;;;;;;;;;16.60;36.80;;;;;;5088814;28;20483;-69
2022/12/11 15:38:48;;;;;;;;;;;16.50;36.90;;;;;;5088653;28;19966;-69
2022/12/11 15:41:14;;;;;;;;;;;16.50;37.10;;;;;;5088597;28;20322;-69
2022/12/11 15:43:40;;;;;;;;;;;16.40;37.10;;;;;;5088594;28;19921;-69